Time;durP1;ratioP1;P1;durP2;ratioP2;P2;SDS_P1;SDS_P2;PMS_P1;PMS_P2;Temp;Humidity;BMP_temperature;BMP_pressure;BME280_temperature;BME280_humidity;BME280_pressure;Samples;Min_cycle;Max_cycle;Signal;HPM_P1;HPM_P2
2021/03/24 00:00:25;;;;;;;0.80;0.80;;;;;;;1.85;72.12;97720.38;299395;203;63004;-58
2021/03/24 00:05:35;;;;;;;0.70;0.70;;;;;;;1.84;72.22;97712.56;299394;204;64013;-58
2021/03/24 00:10:37;;;;;;;0.80;0.80;;;;;;;1.88;72.02;97708.41;299395;244;63005;-58
2021/03/24 00:15:39;;;;;;;0.90;0.90;;;;;;;1.88;71.80;97701.22;299395;226;63009;-57
2021/03/24 00:20:42;;;;;;;0.80;0.80;;;;;;;1.85;71.78;97704.31;299395;256;63008;-58
2021/03/24 00:25:43;;;;;;;0.80;0.80;;;;;;;1.64;72.85;97702.00;299395;205;63009;-58
2021/03/24 00:30:46;;;;;;;0.80;0.80;;;;;;;1.49;73.64;97704.16;299395;263;63004;-58
2021/03/24 00:35:48;;;;;;;0.80;0.80;;;;;;;1.43;73.61;97702.34;299395;203;63009;-58
2021/03/24 00:40:56;;;;;;;0.80;0.80;;;;;;;1.48;73.72;97697.16;299395;227;63005;-58
2021/03/24 00:45:57;;;;;;;0.80;0.80;;;;;;;1.31;73.89;97692.34;299395;232;63008;-59
2021/03/24 00:50:59;;;;;;;0.80;0.80;;;;;;;1.28;74.39;97697.31;299395;197;63004;-58
2021/03/24 00:56:00;;;;;;;0.80;0.80;;;;;;;1.39;73.71;97695.81;299395;230;63009;-58
2021/03/24 01:01:01;;;;;;;0.80;0.80;;;;;;;1.38;73.72;97694.16;299395;211;63004;-58
2021/03/24 01:06:02;;;;;;;0.80;0.80;;;;;;;1.33;73.97;97684.94;299395;204;63012;-58
2021/03/24 01:11:03;;;;;;;0.80;0.80;;;;;;;1.34;74.02;97689.25;299395;204;63005;-58
2021/03/24 01:16:05;;;;;;;0.80;0.80;;;;;;;1.41;73.89;97685.69;299395;198;63008;-58
2021/03/24 01:21:06;;;;;;;1.33;1.33;;;;;;;1.42;73.62;97681.97;299395;197;63004;-58
2021/03/24 01:26:07;;;;;;;0.80;0.80;;;;;;;1.33;73.77;97676.09;299395;249;63019;-58
2021/03/24 01:31:08;;;;;;;0.80;0.80;;;;;;;1.37;73.95;97673.81;299395;259;63004;-58
2021/03/24 01:36:13;;;;;;;0.80;0.80;;;;;;;1.25;74.21;97663.78;299395;237;63018;-58
2021/03/24 01:41:14;;;;;;;;;;;;;;;1.30;74.32;97665.81;299996;982;6000;-58
2021/03/24 01:46:42;;;;;;;0.80;0.80;;;;;;;1.27;74.62;97668.91;299400;241;63010;-58
2021/03/24 01:51:48;;;;;;;0.80;0.80;;;;;;;1.15;74.93;97660.75;299395;212;63009;-57
2021/03/24 01:56:56;;;;;;;0.80;0.80;;;;;;;1.11;75.20;97659.53;299395;229;63010;-58
2021/03/24 02:01:57;;;;;;;0.80;0.80;;;;;;;1.15;75.33;97654.59;299395;245;63009;-59
2021/03/24 02:07:08;;;;;;;0.80;0.80;;;;;;;1.16;74.97;97657.03;299395;202;63004;-58
2021/03/24 02:12:21;;;;;;;0.80;0.80;;;;;;;1.14;75.19;97656.44;299395;249;63009;-58
2021/03/24 02:17:27;;;;;;;0.80;0.80;;;;;;;1.09;75.44;97655.44;299395;212;63005;-58
2021/03/24 02:22:36;;;;;;;0.80;0.80;;;;;;;1.03;75.68;97651.78;299395;261;63009;-59
2021/03/24 02:27:41;;;;;;;0.80;0.80;;;;;;;1.07;75.23;97652.16;299395;202;63004;-58
2021/03/24 02:32:50;;;;;;;0.80;0.80;;;;;;;1.03;75.56;97646.44;299395;215;63009;-58
2021/03/24 02:37:55;;;;;;;0.80;0.80;;;;;;;1.05;75.48;97652.38;299395;207;63004;-59
2021/03/24 02:42:58;;;;;;;0.80;0.80;;;;;;;0.97;75.58;97642.78;299395;207;63009;-58
2021/03/24 02:48:04;;;;;;;0.80;0.80;;;;;;;0.95;76.04;97638.66;299395;209;63005;-58
2021/03/24 02:53:07;;;;;;;0.80;0.80;;;;;;;0.92;76.16;97641.78;299395;198;63008;-59
2021/03/24 02:58:09;;;;;;;0.80;0.80;;;;;;;0.91;75.86;97648.97;299395;197;63010;-58
2021/03/24 03:03:19;;;;;;;0.80;0.80;;;;;;;0.89;76.10;97655.56;299395;221;63009;-58
2021/03/24 03:08:27;;;;;;;0.80;0.80;;;;;;;0.87;76.01;97653.09;299395;270;63004;-58
2021/03/24 03:14:07;;;;;;;0.80;0.80;;;;;;;0.79;76.25;97644.50;299395;198;63009;-57
2021/03/24 03:19:42;;;;;;;0.80;0.80;;;;;;;0.77;76.67;97641.22;299395;207;63005;-59
2021/03/24 03:24:48;;;;;;;0.80;0.80;;;;;;;0.84;76.22;97647.34;299395;240;63009;-58
2021/03/24 03:29:53;;;;;;;0.80;0.80;;;;;;;0.87;76.14;97652.28;299395;202;63004;-58
2021/03/24 03:35:09;;;;;;;0.80;0.80;;;;;;;0.83;76.29;97651.06;299395;202;63009;-58
2021/03/24 03:40:15;;;;;;;0.80;0.80;;;;;;;0.84;76.42;97642.81;299395;204;63005;-58
2021/03/24 03:45:17;;;;;;;0.80;0.80;;;;;;;0.72;76.71;97646.37;299395;222;63008;-58
2021/03/24 03:50:22;;;;;;;0.80;0.80;;;;;;;0.64;76.70;97644.78;299395;218;63004;-58
2021/03/24 03:56:00;;;;;;;0.80;0.80;;;;;;;0.57;77.03;97641.31;299395;226;63009;-58
2021/03/24 04:01:22;;;;;;;0.80;0.80;;;;;;;0.47;77.32;97638.25;299395;198;63009;-58
2021/03/24 04:06:44;;;;;;;0.80;0.80;;;;;;;0.46;77.77;97629.41;299395;226;63004;-58
2021/03/24 04:11:52;;;;;;;0.80;0.80;;;;;;;0.49;77.77;97629.00;299395;207;63020;-58
2021/03/24 04:16:54;;;;;;;0.80;0.80;;;;;;;0.54;77.27;97631.88;299395;202;63005;-58
2021/03/24 04:22:01;;;;;;;0.80;0.80;;;;;;;0.55;77.71;97633.50;299395;226;63009;-58
2021/03/24 04:27:05;;;;;;;0.80;0.80;;;;;;;0.56;77.84;97627.12;299395;225;63008;-58
2021/03/24 04:32:11;;;;;;;0.80;0.80;;;;;;;0.64;77.73;97631.41;299417;248;63009;-58
2021/03/24 04:37:40;;;;;;;0.85;0.85;;;;;;;0.58;77.64;97633.09;299395;255;63004;-58
2021/03/24 04:42:49;;;;;;;0.80;0.80;;;;;;;0.61;77.99;97632.66;299395;216;63004;-58
2021/03/24 04:47:54;;;;;;;0.80;0.80;;;;;;;0.56;77.84;97634.31;299395;203;63005;-59
2021/03/24 04:52:59;;;;;;;0.80;0.80;;;;;;;0.48;78.03;97645.22;299417;205;63008;-59
2021/03/24 04:58:03;;;;;;;0.80;0.80;;;;;;;0.51;78.33;97637.63;299395;246;63004;-58
2021/03/24 05:03:12;;;;;;;0.90;0.90;;;;;;;0.57;78.18;97642.12;299417;224;63009;-58
2021/03/24 05:08:33;;;;;;;0.80;0.80;;;;;;;0.58;77.94;97638.41;299395;234;63005;-58
2021/03/24 05:13:42;;;;;;;0.80;0.80;;;;;;;0.45;77.93;97641.13;299395;196;63008;-59
2021/03/24 05:18:50;;;;;;;0.80;0.80;;;;;;;0.35;78.14;97646.06;299395;229;63004;-59
2021/03/24 05:23:57;;;;;;;0.80;0.80;;;;;;;0.24;78.67;97646.75;299395;233;63009;-58
2021/03/24 05:29:04;;;;;;;1.10;1.08;;;;;;;0.24;78.73;97654.75;299395;237;63004;-58
2021/03/24 05:34:15;;;;;;;0.80;0.80;;;;;;;0.26;78.55;97650.03;299395;202;63009;-59
2021/03/24 05:39:29;;;;;;;0.80;0.80;;;;;;;0.15;78.68;97653.31;299395;216;63005;-58
2021/03/24 05:44:55;;;;;;;0.80;0.80;;;;;;;0.02;78.87;97651.47;299395;233;63008;-58
2021/03/24 05:50:41;;;;;;;0.80;0.80;;;;;;;-0.07;79.12;97650.91;299394;206;64027;-59
2021/03/24 05:56:31;;;;;;;0.80;0.80;;;;;;;-0.09;79.41;97671.63;299395;227;63026;-58
2021/03/24 06:01:47;;;;;;;0.80;0.80;;;;;;;0.00;79.04;97667.69;299396;317;63005;-58
2021/03/24 06:07:41;;;;;;;0.90;0.90;;;;;;;0.02;79.32;97674.69;299396;308;63018;-57
2021/03/24 06:13:40;;;;;;;0.90;0.90;;;;;;;-0.01;79.51;97674.09;299396;279;63004;-57
2021/03/24 06:19:01;;;;;;;0.80;0.80;;;;;;;0.16;78.67;97670.97;299396;226;63009;-59
2021/03/24 06:24:45;;;;;;;0.80;0.80;;;;;;;0.30;78.12;97675.28;299396;232;63005;-58
2021/03/24 06:30:37;;;;;;;0.80;0.80;;;;;;;0.44;77.79;97668.84;299396;206;63008;-58
2021/03/24 06:36:15;;;;;;;0.80;0.80;;;;;;;0.63;76.87;97668.00;299396;228;63000;-60
2021/03/24 06:41:57;;;;;;;0.80;0.80;;;;;;;0.81;76.03;97674.50;299397;203;63004;-59
2021/03/24 06:47:29;;;;;;;0.80;0.80;;;;;;;0.91;76.14;97674.88;299397;202;63005;-58
2021/03/24 06:53:03;;;;;;;0.80;0.80;;;;;;;0.94;76.63;97680.59;299396;232;63009;-59
2021/03/24 06:59:13;;;;;;;0.80;0.80;;;;;;;1.14;75.95;97680.50;299396;211;63004;-58
2021/03/24 07:05:08;;;;;;;1.20;1.20;;;;;;;1.43;74.83;97683.63;299396;203;63009;-58
2021/03/24 07:10:33;;;;;;;0.80;0.80;;;;;;;1.63;74.26;97684.31;299396;202;63005;-58
2021/03/24 07:15:40;;;;;;;0.80;0.80;;;;;;;1.82;73.82;97688.69;299418;245;63009;-58
2021/03/24 07:21:16;;;;;;;0.80;0.80;;;;;;;1.88;74.10;97703.88;299396;203;63004;-59
2021/03/24 07:26:38;;;;;;;0.80;0.80;;;;;;;1.91;74.57;97703.44;299418;226;63009;-57
2021/03/24 07:32:06;;;;;;;0.80;0.80;;;;;;;2.18;73.54;97711.25;299396;220;63005;-59
2021/03/24 07:37:47;;;;;;;0.70;0.70;;;;;;;2.31;73.06;97705.78;299396;219;63009;-58
2021/03/24 07:43:46;;;;;;;0.77;0.77;;;;;;;2.57;72.20;97710.06;299397;252;63004;-58
2021/03/24 07:49:28;;;;;;;0.80;0.80;;;;;;;2.76;72.06;97713.59;299395;202;63009;-59
2021/03/24 07:54:54;;;;;;;0.80;0.80;;;;;;;3.14;70.50;97705.28;299394;213;64005;-58
2021/03/24 08:00:36;;;;;;;0.80;0.80;;;;;;;3.31;70.62;97720.53;299417;197;63009;-58
2021/03/24 08:06:02;;;;;;;0.80;0.80;;;;;;;3.72;69.01;97700.16;299395;222;63004;-58
2021/03/24 08:11:37;;;;;;;0.70;0.70;;;;;;;4.28;66.78;97702.34;299395;236;63009;-58
2021/03/24 08:17:25;;;;;;;0.70;0.70;;;;;;;4.64;65.39;97695.09;299395;246;63005;-59
2021/03/24 08:23:10;;;;;;;0.70;0.70;;;;;;;4.91;65.48;97692.72;299395;275;63009;-58
2021/03/24 08:28:39;;;;;;;0.70;0.70;;;;;;;5.11;64.64;97686.94;299395;220;63004;-57
2021/03/24 08:34:33;;;;;;;0.70;0.70;;;;;;;5.49;62.58;97686.34;299395;197;63009;-58
2021/03/24 08:40:10;;;;;;;0.70;0.70;;;;;;;5.61;61.49;97687.09;299395;214;63018;-52
2021/03/24 08:45:21;;;;;;;0.77;0.77;;;;;;;5.68;61.16;97688.56;299395;238;63009;-58
2021/03/24 08:50:32;;;;;;;0.70;0.70;;;;;;;5.89;61.45;97694.38;299395;221;63004;-57
2021/03/24 08:55:53;;;;;;;0.70;0.70;;;;;;;6.09;60.54;97683.91;299395;202;63009;-59
2021/03/24 09:01:48;;;;;;;0.70;0.70;;;;;;;6.39;60.87;97688.97;299395;308;63005;-59
2021/03/24 09:07:28;;;;;;;0.70;0.70;;;;;;;6.67;60.01;97686.16;299395;328;63009;-58
2021/03/24 09:12:37;;;;;;;0.70;0.70;;;;;;;7.01;58.83;97677.97;299395;233;63004;-58
2021/03/24 09:18:21;;;;;;;0.70;0.70;;;;;;;7.19;58.32;97666.03;299395;210;63009;-58
2021/03/24 09:24:08;;;;;;;0.70;0.70;;;;;;;7.46;57.62;97674.16;299395;209;63005;-58
2021/03/24 09:29:36;;;;;;;0.70;0.70;;;;;;;7.62;58.77;97682.16;299417;341;63021;-58
2021/03/24 09:35:18;;;;;;;0.70;0.70;;;;;;;7.99;56.22;97671.44;299395;237;63020;-59
2021/03/24 09:40:34;;;;;;;0.70;0.70;;;;;;;7.94;56.77;97674.13;299395;213;63009;-59
2021/03/24 09:45:39;;;;;;;0.70;0.70;;;;;;;7.76;56.29;97665.56;299395;256;63005;-58
2021/03/24 09:51:13;;;;;;;0.70;0.70;;;;;;;8.02;56.07;97654.72;299395;202;63009;-57
2021/03/24 09:56:23;;;;;;;0.70;0.70;;;;;;;8.08;56.03;97653.69;299395;211;63004;-58
2021/03/24 10:01:59;;;;;;;0.70;0.70;;;;;;;8.30;57.30;97656.31;299395;207;63009;-59
2021/03/24 10:07:14;;;;;;;;;;;;;;;8.77;53.32;97635.78;299996;983;6000;-57
2021/03/24 10:12:28;;;;;;;1.10;1.10;;;;;;;8.72;54.27;97636.56;299400;236;63004;-58
2021/03/24 10:17:42;;;;;;;0.60;0.60;;;;;;;8.85;53.17;97635.28;299395;205;63009;-58
2021/03/24 10:23:08;;;;;;;0.60;0.60;;;;;;;8.99;53.60;97631.03;299395;245;63005;-58
2021/03/24 10:28:18;;;;;;;0.65;0.65;;;;;;;9.02;51.24;97622.34;299395;279;63009;-58
2021/03/24 10:33:50;;;;;;;0.60;0.60;;;;;;;8.81;53.25;97626.06;299395;246;63017;-59
2021/03/24 10:39:04;;;;;;;0.60;0.60;;;;;;;8.92;52.64;97609.59;299395;205;63009;-58
2021/03/24 10:44:39;;;;;;;0.60;0.60;;;;;;;9.00;52.05;97597.47;299395;235;63005;-59
2021/03/24 10:50:10;;;;;;;1.02;1.02;;;;;;;9.06;51.24;97588.25;299395;199;63008;-59
2021/03/24 10:55:20;;;;;;;0.70;0.70;;;;;;;9.12;52.50;97592.59;299395;230;63009;-58
2021/03/24 11:00:31;;;;;;;0.70;0.70;;;;;;;9.19;52.41;97597.78;299395;204;63005;-58
2021/03/24 11:05:43;;;;;;;0.60;0.60;;;;;;;9.19;51.29;97590.47;299395;203;63009;-58
2021/03/24 11:11:05;;;;;;;0.62;0.62;;;;;;;9.27;52.93;97592.66;299395;221;63004;-58
2021/03/24 11:16:19;;;;;;;0.60;0.60;;;;;;;9.39;52.94;97586.97;299395;270;63009;-54
2021/03/24 11:21:49;;;;;;;0.70;0.70;;;;;;;9.56;50.00;97575.91;299395;250;63005;-58
2021/03/24 11:27:08;;;;;;;0.60;0.60;;;;;;;9.41;50.69;97576.69;299395;275;63008;-60
2021/03/24 11:32:27;;;;;;;0.60;0.60;;;;;;;9.27;51.47;97568.28;299395;206;63004;-58
2021/03/24 11:37:47;;;;;;;0.62;0.62;;;;;;;9.53;50.10;97562.91;299395;204;63009;-61
2021/03/24 11:42:58;;;;;;;0.68;0.68;;;;;;;9.43;50.17;97561.00;299395;197;63005;-57
2021/03/24 11:48:38;;;;;;;0.65;0.65;;;;;;;9.45;50.56;97564.25;299395;229;63009;-59
2021/03/24 11:54:19;;;;;;;0.60;0.60;;;;;;;9.66;50.72;97565.09;299395;280;63009;-60
2021/03/24 11:59:47;;;;;;;0.70;0.70;;;;;;;9.85;50.14;97563.44;299395;282;63005;-59
2021/03/24 12:05:10;;;;;;;0.70;0.70;;;;;;;9.84;49.76;97550.97;299395;258;63009;-58
2021/03/24 12:10:37;;;;;;;0.60;0.60;;;;;;;9.87;50.44;97552.34;299395;273;63004;-58
2021/03/24 12:15:40;;;;;;;0.60;0.60;;;;;;;10.14;48.99;97552.84;299395;239;63009;-59
2021/03/24 12:21:04;;;;;;;0.60;0.60;;;;;;;10.18;48.25;97537.66;299395;242;63005;-60
2021/03/24 12:26:25;;;;;;;0.60;0.60;;;;;;;10.15;48.74;97540.09;299395;204;63009;-60
2021/03/24 12:31:26;;;;;;;0.60;0.60;;;;;;;10.19;49.51;97531.19;299395;332;63004;-58
2021/03/24 12:36:30;;;;;;;0.60;0.60;;;;;;;10.39;49.32;97535.75;299395;207;63009;-60
2021/03/24 12:41:40;;;;;;;0.60;0.60;;;;;;;10.54;47.59;97521.31;299417;273;63018;-59
2021/03/24 12:46:57;;;;;;;0.60;0.60;;;;;;;10.56;48.55;97511.81;299395;384;63009;-62
2021/03/24 12:52:46;;;;;;;0.60;0.60;;;;;;;10.76;46.48;97502.75;299395;266;63005;-66
2021/03/24 12:58:25;;;;;;;0.70;0.70;;;;;;;10.78;47.41;97497.84;299395;201;63009;-62
2021/03/24 13:04:10;;;;;;;0.60;0.60;;;;;;;11.02;47.02;97489.88;299395;215;63008;-60
2021/03/24 13:09:38;;;;;;;0.70;0.70;;;;;;;11.10;47.08;97486.53;299395;257;63009;-59
2021/03/24 13:15:21;;;;;;;0.60;0.60;;;;;;;11.15;47.62;97488.41;299395;244;63005;-58
2021/03/24 13:21:07;;;;;;;2.00;1.90;;;;;;;11.26;46.35;97474.50;299395;189;63009;-62
2021/03/24 13:26:37;;;;;;;0.60;0.60;;;;;;;11.22;47.06;97462.56;299417;313;63004;-59
2021/03/24 13:32:05;;;;;;;0.60;0.60;;;;;;;11.34;46.56;97448.63;299395;206;63009;-59
2021/03/24 13:37:14;;;;;;;0.60;0.60;;;;;;;11.34;46.77;97443.19;299395;205;63005;-60
2021/03/24 13:42:52;;;;;;;0.60;0.60;;;;;;;11.52;45.77;97444.38;299395;264;63009;-60
2021/03/24 13:48:03;;;;;;;0.60;0.60;;;;;;;11.45;47.75;97443.91;299395;196;63004;-59
2021/03/24 13:53:31;;;;;;;0.60;0.60;;;;;;;11.77;46.06;97440.69;299395;309;63009;-58
2021/03/24 13:59:16;;;;;;;0.60;0.60;;;;;;;11.75;46.13;97432.78;299395;202;63005;-58
2021/03/24 14:05:15;;;;;;;0.60;0.60;;;;;;;11.78;45.99;97424.06;299395;210;63009;-59
2021/03/24 14:10:39;;;;;;;0.60;0.60;;;;;;;11.84;45.97;97420.19;299395;210;63004;-59
2021/03/24 14:16:23;;;;;;;0.60;0.60;;;;;;;11.78;46.47;97410.47;299395;199;63010;-59
2021/03/24 14:22:08;;;;;;;0.60;0.60;;;;;;;11.80;46.35;97402.00;299395;209;63005;-59
2021/03/24 14:27:31;;;;;;;0.60;0.60;;;;;;;11.78;46.33;97396.88;299395;232;63009;-59
2021/03/24 14:33:27;;;;;;;0.60;0.60;;;;;;;11.69;46.29;97401.28;299395;222;63004;-59
2021/03/24 14:38:57;;;;;;;0.60;0.60;;;;;;;11.83;46.59;97380.50;299395;277;63009;-59
2021/03/24 14:44:35;;;;;;;0.60;0.60;;;;;;;11.80;45.32;97381.06;299395;229;63005;-59
2021/03/24 14:50:27;;;;;;;0.60;0.60;;;;;;;11.84;46.07;97387.56;299395;244;63005;-59
2021/03/24 14:55:59;;;;;;;0.60;0.60;;;;;;;12.06;45.59;97379.69;299395;222;63008;-58
2021/03/24 15:01:34;;;;;;;0.60;0.60;;;;;;;12.16;45.83;97377.94;299395;222;63004;-59
2021/03/24 15:06:40;;;;;;;0.60;0.60;;;;;;;12.27;45.49;97372.09;299417;222;63009;-58
2021/03/24 15:11:52;;;;;;;0.60;0.60;;;;;;;12.59;44.52;97382.28;299395;240;63005;-58
2021/03/24 15:17:27;;;;;;;0.60;0.60;;;;;;;12.78;44.16;97376.84;299395;213;63009;-59
2021/03/24 15:23:06;;;;;;;0.60;0.60;;;;;;;12.96;43.47;97376.00;299395;216;63005;-58
2021/03/24 15:28:37;;;;;;;0.50;0.50;;;;;;;13.14;41.91;97355.31;299394;374;64013;-59
2021/03/24 15:33:55;;;;;;;0.60;0.60;;;;;;;13.39;42.82;97359.53;299395;492;63005;-60
2021/03/24 15:39:19;;;;;;;0.60;0.60;;;;;;;13.58;42.36;97354.00;299395;346;63009;-59
2021/03/24 15:44:43;;;;;;;0.85;0.82;;;;;;;13.49;42.96;97362.09;299395;379;63005;-59
2021/03/24 15:50:35;;;;;;;0.60;0.60;;;;;;;13.57;41.97;97344.19;299395;415;63009;-59
2021/03/24 15:55:37;;;;;;;0.60;0.60;;;;;;;13.65;41.38;97348.97;299395;393;63004;-60
2021/03/24 16:01:08;;;;;;;0.57;0.57;;;;;;;13.62;41.19;97344.12;299395;234;63009;-59
2021/03/24 16:06:39;;;;;;;0.60;0.60;;;;;;;13.66;41.08;97345.12;299395;263;63005;-59
2021/03/24 16:12:10;;;;;;;0.60;0.60;;;;;;;13.69;41.52;97345.34;299395;233;63009;-58
2021/03/24 16:17:51;;;;;;;0.60;0.60;;;;;;;13.48;41.09;97346.03;299395;240;63016;-59
2021/03/24 16:23:28;;;;;;;0.60;0.60;;;;;;;13.48;42.83;97354.22;299395;278;63004;-58
2021/03/24 16:28:59;;;;;;;0.50;0.50;;;;;;;13.21;41.26;97347.56;299395;233;63005;-59
2021/03/24 16:34:38;;;;;;;0.50;0.50;;;;;;;13.19;42.39;97351.69;299395;260;63009;-58
2021/03/24 16:40:21;;;;;;;0.50;0.50;;;;;;;12.86;41.91;97348.91;299395;453;63004;-59
2021/03/24 16:46:03;;;;;;;0.60;0.60;;;;;;;12.48;42.77;97348.13;299395;202;63009;-59
2021/03/24 16:51:55;;;;;;;0.70;0.70;;;;;;;12.15;42.92;97343.69;299395;248;63005;-59
2021/03/24 16:57:22;;;;;;;0.60;0.60;;;;;;;11.80;44.42;97340.28;299395;215;63009;-58
2021/03/24 17:03:16;;;;;;;0.60;0.60;;;;;;;11.52;46.00;97341.94;299395;251;63004;-58
2021/03/24 17:08:38;;;;;;;0.60;0.60;;;;;;;11.31;46.62;97351.38;299395;204;63004;-59
2021/03/24 17:14:07;;;;;;;0.60;0.60;;;;;;;11.13;47.37;97355.63;299395;206;63009;-58
2021/03/24 17:19:36;;;;;;;0.60;0.60;;;;;;;10.88;47.78;97353.12;299395;250;63005;-59
2021/03/24 17:24:42;;;;;;;0.60;0.60;;;;;;;10.69;48.36;97361.94;299395;209;63004;-58
2021/03/24 17:30:31;;;;;;;0.60;0.60;;;;;;;10.42;49.69;97372.41;299395;344;63009;-59
2021/03/24 17:35:36;;;;;;;0.60;0.60;;;;;;;10.24;49.84;97375.78;299395;203;63005;-58
2021/03/24 17:41:08;;;;;;;0.60;0.60;;;;;;;10.02;50.52;97373.41;299395;317;63009;-59
2021/03/24 17:46:20;;;;;;;0.60;0.60;;;;;;;9.73;51.62;97375.91;299395;253;63004;-59
2021/03/24 17:51:59;;;;;;;0.50;0.50;;;;;;;9.47;52.32;97377.06;299395;204;63009;-59
2021/03/24 17:57:22;;;;;;;0.60;0.60;;;;;;;9.24;53.07;97392.00;299395;209;63005;-58
2021/03/24 18:02:53;;;;;;;0.60;0.60;;;;;;;9.02;54.05;97401.19;299395;196;63008;-58
2021/03/24 18:07:55;;;;;;;0.60;0.60;;;;;;;8.83;54.41;97410.13;299395;224;63004;-58
2021/03/24 18:13:04;;;;;;;0.60;0.60;;;;;;;8.68;54.80;97410.91;299395;244;63009;-59
2021/03/24 18:18:18;;;;;;;0.60;0.60;;;;;;;8.55;55.11;97409.53;299395;202;63005;-58
2021/03/24 18:23:30;;;;;;;0.60;0.60;;;;;;;8.46;55.42;97411.13;299395;238;63009;-59
2021/03/24 18:28:44;;;;;;;0.60;0.60;;;;;;;8.41;55.28;97413.81;299395;222;63005;-58
2021/03/24 18:33:48;;;;;;;0.70;0.70;;;;;;;8.35;55.81;97409.47;299396;201;63009;-58
2021/03/24 18:39:08;;;;;;;0.70;0.70;;;;;;;8.32;56.08;97420.78;299440;257;63004;-57
2021/03/24 18:44:23;;;;;;;0.60;0.60;;;;;;;8.30;55.87;97412.16;299396;205;63009;-56
2021/03/24 18:49:31;;;;;;;0.60;0.60;;;;;;;8.21;55.99;97414.53;299418;300;63005;-57
2021/03/24 18:54:43;;;;;;;0.60;0.60;;;;;;;8.13;56.19;97409.66;299396;222;63008;-58
2021/03/24 18:59:45;;;;;;;0.60;0.60;;;;;;;8.02;56.62;97416.87;299396;221;63004;-57
2021/03/24 19:04:46;;;;;;;0.60;0.60;;;;;;;7.93;56.79;97428.47;299396;206;63009;-56
2021/03/24 19:09:49;;;;;;;0.60;0.60;;;;;;;7.85;56.85;97429.78;299396;271;63004;-56
2021/03/24 19:14:54;;;;;;;0.60;0.60;;;;;;;7.81;56.64;97425.97;299396;196;63009;-56
2021/03/24 19:19:58;;;;;;;0.60;0.60;;;;;;;7.71;56.79;97431.31;299397;272;63005;-56
2021/03/24 19:25:25;;;;;;;0.60;0.60;;;;;;;7.67;56.85;97431.03;299397;217;63009;-56
2021/03/24 19:30:35;;;;;;;0.60;0.60;;;;;;;7.66;57.34;97434.78;299396;196;63004;-56
2021/03/24 19:35:38;;;;;;;0.60;0.60;;;;;;;7.63;57.44;97434.50;299396;240;63009;-53
2021/03/24 19:40:40;;;;;;;0.70;0.70;;;;;;;7.60;57.77;97432.34;299396;217;63005;-58
2021/03/24 19:45:42;;;;;;;0.70;0.70;;;;;;;7.52;58.03;97439.03;299396;210;63009;-57
2021/03/24 19:50:44;;;;;;;0.60;0.60;;;;;;;7.48;58.20;97448.72;299396;216;63005;-57
2021/03/24 19:55:47;;;;;;;0.70;0.70;;;;;;;7.46;57.94;97434.66;299396;223;63009;-57
2021/03/24 20:01:33;;;;;;;0.70;0.70;;;;;;;7.39;58.61;97440.28;299396;208;63004;-57
2021/03/24 20:06:52;;;;;;;0.62;0.62;;;;;;;7.33;58.64;97437.81;299396;239;63009;-56
2021/03/24 20:12:00;;;;;;;0.70;0.70;;;;;;;7.33;58.56;97435.09;299397;202;63005;-57
2021/03/24 20:17:16;;;;;;;0.60;0.60;;;;;;;7.33;58.28;97427.81;299397;205;63009;-56
2021/03/24 20:22:18;;;;;;;0.70;0.70;;;;;;;7.26;58.42;97429.94;299395;204;63004;-56
2021/03/24 20:27:20;;;;;;;0.70;0.70;;;;;;;7.21;58.66;97424.50;299395;202;63009;-55
2021/03/24 20:32:31;;;;;;;0.60;0.60;;;;;;;7.17;58.41;97423.41;299395;253;63005;-56
2021/03/24 20:37:46;;;;;;;0.70;0.70;;;;;;;7.11;58.41;97416.31;299395;247;63009;-56
2021/03/24 20:42:50;;;;;;;0.60;0.60;;;;;;;7.05;58.82;97415.47;299417;197;63005;-57
2021/03/24 20:47:51;;;;;;;;;;;;;;;7.00;59.12;97411.91;299996;982;6005;-56
2021/03/24 20:52:53;;;;;;;0.70;0.70;;;;;;;6.95;59.97;97406.47;299399;214;64009;-57
2021/03/24 20:57:55;;;;;;;0.70;0.70;;;;;;;6.87;60.51;97421.25;299395;221;63005;-56
2021/03/24 21:02:59;;;;;;;0.62;0.62;;;;;;;6.90;58.45;97403.75;299394;210;64014;-57
2021/03/24 21:08:00;;;;;;;0.70;0.70;;;;;;;6.93;58.15;97392.44;299417;213;63004;-56
2021/03/24 21:13:02;;;;;;;0.70;0.70;;;;;;;6.93;57.49;97395.16;299373;217;63012;-56
2021/03/24 21:18:09;;;;;;;0.70;0.70;;;;;;;6.87;57.15;97391.59;299395;218;63005;-57
2021/03/24 21:23:10;;;;;;;0.70;0.70;;;;;;;6.81;57.21;97387.22;299395;276;63008;-58
2021/03/24 21:28:12;;;;;;;0.70;0.70;;;;;;;6.76;57.83;97397.13;299395;233;63004;-53
2021/03/24 21:33:16;;;;;;;0.70;0.70;;;;;;;6.76;58.81;97394.44;299395;218;63009;-57
2021/03/24 21:38:18;;;;;;;0.70;0.70;;;;;;;6.77;58.93;97393.38;299439;207;63004;-57
2021/03/24 21:43:20;;;;;;;0.70;0.70;;;;;;;6.75;59.63;97400.91;299395;249;63009;-57
2021/03/24 21:48:40;;;;;;;0.70;0.70;;;;;;;6.67;58.79;97389.50;299395;227;63005;-57
2021/03/24 21:53:41;;;;;;;0.60;0.60;;;;;;;6.62;58.02;97385.94;299395;203;63009;-57
2021/03/24 21:58:48;;;;;;;0.70;0.70;;;;;;;6.56;58.23;97392.38;299395;198;63004;-57
2021/03/24 22:03:59;;;;;;;0.70;0.70;;;;;;;6.47;58.51;97389.31;299395;196;63009;-57
2021/03/24 22:09:02;;;;;;;0.60;0.60;;;;;;;6.46;58.05;97382.31;299395;221;63005;-57
2021/03/24 22:14:33;;;;;;;0.70;0.70;;;;;;;6.50;57.68;97383.41;299395;202;63023;-57
2021/03/24 22:19:36;;;;;;;0.70;0.70;;;;;;;6.56;57.62;97377.00;299395;244;63005;-56
2021/03/24 22:24:37;;;;;;;0.68;0.68;;;;;;;6.59;57.55;97379.16;299395;221;63014;-57
2021/03/24 22:30:08;;;;;;;0.70;0.70;;;;;;;6.58;57.63;97377.56;299395;274;63004;-57
2021/03/24 22:35:23;;;;;;;0.70;0.70;;;;;;;6.62;57.41;97386.75;299395;224;63009;-57
2021/03/24 22:40:27;;;;;;;0.70;0.70;;;;;;;6.60;57.76;97383.50;299417;203;63005;-57
2021/03/24 22:45:29;;;;;;;0.70;0.70;;;;;;;6.55;58.29;97386.16;299395;204;63009;-57
2021/03/24 22:50:43;;;;;;;0.60;0.60;;;;;;;6.53;58.30;97387.50;299395;219;63004;-57
2021/03/24 22:55:55;;;;;;;0.60;0.60;;;;;;;6.47;58.81;97383.94;299395;237;63009;-52
2021/03/24 23:00:59;;;;;;;0.70;0.70;;;;;;;6.41;59.16;97393.03;299395;203;63005;-56
2021/03/24 23:06:00;;;;;;;0.70;0.70;;;;;;;6.36;59.65;97399.16;299417;236;63019;-57
2021/03/24 23:11:02;;;;;;;0.60;0.60;;;;;;;6.28;59.90;97386.16;299373;196;63005;-57
2021/03/24 23:16:19;;;;;;;0.70;0.70;;;;;;;6.26;59.96;97376.69;299395;214;63009;-57
2021/03/24 23:21:22;;;;;;;0.68;0.68;;;;;;;6.22;60.29;97379.09;299395;206;63004;-57
2021/03/24 23:26:26;;;;;;;0.70;0.70;;;;;;;6.17;60.72;97372.84;299395;218;63009;-57
2021/03/24 23:31:27;;;;;;;0.70;0.70;;;;;;;6.13;60.71;97369.81;299417;227;63005;-57
2021/03/24 23:36:28;;;;;;;0.70;0.70;;;;;;;6.09;60.82;97366.00;299395;204;63009;-56
2021/03/24 23:41:29;;;;;;;0.70;0.70;;;;;;;6.05;61.14;97370.25;299395;267;63005;-58
2021/03/24 23:46:30;;;;;;;0.60;0.60;;;;;;;5.95;61.60;97365.56;299395;234;63009;-58
2021/03/24 23:51:32;;;;;;;0.70;0.70;;;;;;;5.93;61.91;97365.00;299395;279;63004;-57
